Pursley, Texas
Current Conditions -  °F | °C
As of 4:53 PM on Wednesday 26 Nov 2014 (Local Time) from KCRS Reporting Station
Clear Clear  
Wind Chill: 65°   Ceiling: Unl
Heat Index: 65°   Visibility: 10mi
Dew Point: 31°   Wind: 3mph
Humidity: 28%   Direction: 30°NNE
Pressure: 30.22"   Gusts: NA
Location:  31.9458°N, 96.5713°W
Report Text: KCRS 262253Z AUTO 03003KT 10SM CLR 18/M01 A3022 RMK AO2 SLP233 T01831006
Loading
Personal Weather Stations






























Interactive Weather Map New forecast layout! Learn more

10-Day Weather Forecast

Advertisements
Track Severe Weather on mobile